sensor_id;sensor_type;location;lat;lon;timestamp;temperature;humidity
22081;DHT22;11207;59.512;18.050;2023-04-28T00:02:06;3.80;99.90
22081;DHT22;11207;59.512;18.050;2023-04-28T00:04:31;3.90;99.90
22081;DHT22;11207;59.512;18.050;2023-04-28T00:06:57;3.90;99.90
22081;DHT22;11207;59.512;18.050;2023-04-28T00:09:23;3.80;99.90
22081;DHT22;11207;59.512;18.050;2023-04-28T00:11:48;3.80;99.90
22081;DHT22;11207;59.512;18.050;2023-04-28T00:14:14;3.90;99.90
22081;DHT22;11207;59.512;18.050;2023-04-28T00:16:39;3.90;99.90
22081;DHT22;11207;59.512;18.050;2023-04-28T00:19:05;3.90;99.90
22081;DHT22;11207;59.512;18.050;2023-04-28T00:21:31;3.90;99.90
22081;DHT22;11207;59.512;18.050;2023-04-28T00:23:57;3.80;99.90
22081;DHT22;11207;59.512;18.050;2023-04-28T00:26:23;3.90;99.90
22081;DHT22;11207;59.512;18.050;2023-04-28T00:28:49;3.80;99.90
22081;DHT22;11207;59.512;18.050;2023-04-28T00:31:17;3.80;99.90
22081;DHT22;11207;59.512;18.050;2023-04-28T00:33:43;3.80;99.90
22081;DHT22;11207;59.512;18.050;2023-04-28T00:36:09;3.80;99.90
22081;DHT22;11207;59.512;18.050;2023-04-28T00:38:36;3.80;99.90
22081;DHT22;11207;59.512;18.050;2023-04-28T00:41:04;3.90;99.90
22081;DHT22;11207;59.512;18.050;2023-04-28T00:43:30;3.80;99.90
22081;DHT22;11207;59.512;18.050;2023-04-28T00:45:56;3.70;99.90
22081;DHT22;11207;59.512;18.050;2023-04-28T00:48:21;3.70;99.90
22081;DHT22;11207;59.512;18.050;2023-04-28T00:50:48;3.70;99.90
22081;DHT22;11207;59.512;18.050;2023-04-28T00:53:17;3.70;99.90
22081;DHT22;11207;59.512;18.050;2023-04-28T00:55:43;3.70;99.90
22081;DHT22;11207;59.512;18.050;2023-04-28T00:58:10;3.50;99.90
22081;DHT22;11207;59.512;18.050;2023-04-28T01:00:35;3.50;99.90
22081;DHT22;11207;59.512;18.050;2023-04-28T01:03:01;3.50;99.90
22081;DHT22;11207;59.512;18.050;2023-04-28T01:05:28;3.50;99.90
22081;DHT22;11207;59.512;18.050;2023-04-28T01:07:53;3.40;99.90
22081;DHT22;11207;59.512;18.050;2023-04-28T01:10:21;3.40;99.90
22081;DHT22;11207;59.512;18.050;2023-04-28T01:12:46;3.30;99.90
22081;DHT22;11207;59.512;18.050;2023-04-28T01:15:17;3.30;99.90
22081;DHT22;11207;59.512;18.050;2023-04-28T01:17:45;3.20;99.90
22081;DHT22;11207;59.512;18.050;2023-04-28T01:20:11;3.20;99.90
22081;DHT22;11207;59.512;18.050;2023-04-28T01:22:37;3.20;99.90
22081;DHT22;11207;59.512;18.050;2023-04-28T01:25:03;3.20;99.90
22081;DHT22;11207;59.512;18.050;2023-04-28T01:27:29;3.10;99.90
22081;DHT22;11207;59.512;18.050;2023-04-28T01:29:54;3.10;99.90
22081;DHT22;11207;59.512;18.050;2023-04-28T01:32:20;3.10;99.90
22081;DHT22;11207;59.512;18.050;2023-04-28T01:34:45;3.10;99.90
22081;DHT22;11207;59.512;18.050;2023-04-28T01:37:12;3.00;99.90
22081;DHT22;11207;59.512;18.050;2023-04-28T01:39:37;3.00;99.90
22081;DHT22;11207;59.512;18.050;2023-04-28T01:42:03;3.00;99.90
22081;DHT22;11207;59.512;18.050;2023-04-28T01:44:29;3.00;99.90
22081;DHT22;11207;59.512;18.050;2023-04-28T01:46:54;3.00;99.90
22081;DHT22;11207;59.512;18.050;2023-04-28T01:49:20;2.90;99.90
22081;DHT22;11207;59.512;18.050;2023-04-28T01:51:46;2.90;99.90
22081;DHT22;11207;59.512;18.050;2023-04-28T01:54:11;2.90;99.90
22081;DHT22;11207;59.512;18.050;2023-04-28T01:56:37;2.90;99.90
22081;DHT22;11207;59.512;18.050;2023-04-28T01:59:03;2.90;99.90
22081;DHT22;11207;59.512;18.050;2023-04-28T02:01:28;2.90;99.90
22081;DHT22;11207;59.512;18.050;2023-04-28T02:03:54;2.90;99.90
22081;DHT22;11207;59.512;18.050;2023-04-28T02:06:20;2.80;99.90
22081;DHT22;11207;59.512;18.050;2023-04-28T02:08:45;2.80;99.90
22081;DHT22;11207;59.512;18.050;2023-04-28T02:11:11;2.80;99.90
22081;DHT22;11207;59.512;18.050;2023-04-28T02:13:37;2.80;99.90
22081;DHT22;11207;59.512;18.050;2023-04-28T02:16:02;2.90;99.90
22081;DHT22;11207;59.512;18.050;2023-04-28T02:18:29;2.90;99.90
22081;DHT22;11207;59.512;18.050;2023-04-28T02:20:54;2.90;99.90
22081;DHT22;11207;59.512;18.050;2023-04-28T02:23:20;2.90;99.90
22081;DHT22;11207;59.512;18.050;2023-04-28T02:25:46;3.00;99.90
22081;DHT22;11207;59.512;18.050;2023-04-28T02:28:11;3.00;99.90
22081;DHT22;11207;59.512;18.050;2023-04-28T02:30:37;3.00;99.90
22081;DHT22;11207;59.512;18.050;2023-04-28T02:33:04;3.00;99.90
22081;DHT22;11207;59.512;18.050;2023-04-28T02:35:30;3.00;99.90
22081;DHT22;11207;59.512;18.050;2023-04-28T02:37:55;3.00;99.90
22081;DHT22;11207;59.512;18.050;2023-04-28T02:40:21;3.00;99.90
22081;DHT22;11207;59.512;18.050;2023-04-28T02:42:47;3.10;99.90
22081;DHT22;11207;59.512;18.050;2023-04-28T02:45:12;3.00;99.90
22081;DHT22;11207;59.512;18.050;2023-04-28T02:47:38;2.90;99.90
22081;DHT22;11207;59.512;18.050;2023-04-28T02:50:04;3.00;99.90
22081;DHT22;11207;59.512;18.050;2023-04-28T02:52:30;3.00;99.90
22081;DHT22;11207;59.512;18.050;2023-04-28T02:54:55;3.00;99.90
22081;DHT22;11207;59.512;18.050;2023-04-28T02:57:22;3.00;99.90
22081;DHT22;11207;59.512;18.050;2023-04-28T02:59:48;3.00;99.90
22081;DHT22;11207;59.512;18.050;2023-04-28T03:02:14;3.00;99.90
22081;DHT22;11207;59.512;18.050;2023-04-28T03:04:41;3.00;99.90
22081;DHT22;11207;59.512;18.050;2023-04-28T03:07:06;3.00;99.90
22081;DHT22;11207;59.512;18.050;2023-04-28T03:09:32;2.90;99.90
22081;DHT22;11207;59.512;18.050;2023-04-28T03:11:58;3.00;99.90
22081;DHT22;11207;59.512;18.050;2023-04-28T03:14:23;3.00;99.90
22081;DHT22;11207;59.512;18.050;2023-04-28T03:16:49;3.00;99.90
22081;DHT22;11207;59.512;18.050;2023-04-28T03:19:15;3.00;99.90
22081;DHT22;11207;59.512;18.050;2023-04-28T03:21:41;3.10;99.90
22081;DHT22;11207;59.512;18.050;2023-04-28T03:24:06;3.10;99.90
22081;DHT22;11207;59.512;18.050;2023-04-28T03:26:32;3.20;99.90
22081;DHT22;11207;59.512;18.050;2023-04-28T03:28:59;3.10;99.90
22081;DHT22;11207;59.512;18.050;2023-04-28T03:31:25;3.20;99.90
22081;DHT22;11207;59.512;18.050;2023-04-28T03:33:51;3.00;99.90
22081;DHT22;11207;59.512;18.050;2023-04-28T03:36:16;3.20;99.90
22081;DHT22;11207;59.512;18.050;2023-04-28T03:38:45;3.20;99.90
22081;DHT22;11207;59.512;18.050;2023-04-28T03:41:11;3.20;99.90
22081;DHT22;11207;59.512;18.050;2023-04-28T03:43:36;3.30;99.90
22081;DHT22;11207;59.512;18.050;2023-04-28T03:46:03;3.30;99.90
22081;DHT22;11207;59.512;18.050;2023-04-28T03:48:29;3.30;99.90
22081;DHT22;11207;59.512;18.050;2023-04-28T03:50:55;3.40;99.90
22081;DHT22;11207;59.512;18.050;2023-04-28T03:53:20;3.40;99.90
22081;DHT22;11207;59.512;18.050;2023-04-28T03:55:46;3.40;99.90
22081;DHT22;11207;59.512;18.050;2023-04-28T03:58:12;3.40;99.90
22081;DHT22;11207;59.512;18.050;2023-04-28T04:00:37;3.40;99.90
22081;DHT22;11207;59.512;18.050;2023-04-28T04:03:03;3.50;99.90
22081;DHT22;11207;59.512;18.050;2023-04-28T04:05:28;3.50;99.90
22081;DHT22;11207;59.512;18.050;2023-04-28T04:07:54;3.50;99.90
22081;DHT22;11207;59.512;18.050;2023-04-28T04:10:20;3.40;99.90
22081;DHT22;11207;59.512;18.050;2023-04-28T04:12:46;3.50;99.90
22081;DHT22;11207;59.512;18.050;2023-04-28T04:15:11;3.60;99.90
22081;DHT22;11207;59.512;18.050;2023-04-28T04:17:37;3.60;99.90
22081;DHT22;11207;59.512;18.050;2023-04-28T04:20:03;3.60;99.90
22081;DHT22;11207;59.512;18.050;2023-04-28T04:22:29;3.70;99.90
22081;DHT22;11207;59.512;18.050;2023-04-28T04:24:54;3.70;99.90
22081;DHT22;11207;59.512;18.050;2023-04-28T04:27:22;3.70;99.90
22081;DHT22;11207;59.512;18.050;2023-04-28T04:29:48;3.70;99.90
22081;DHT22;11207;59.512;18.050;2023-04-28T04:32:13;3.70;99.90
22081;DHT22;11207;59.512;18.050;2023-04-28T04:34:39;3.70;99.90
22081;DHT22;11207;59.512;18.050;2023-04-28T04:37:04;3.80;99.90
22081;DHT22;11207;59.512;18.050;2023-04-28T04:39:30;3.80;99.90
22081;DHT22;11207;59.512;18.050;2023-04-28T04:41:56;3.80;99.90
22081;DHT22;11207;59.512;18.050;2023-04-28T04:44:22;3.80;99.90
22081;DHT22;11207;59.512;18.050;2023-04-28T04:46:47;3.90;99.90
22081;DHT22;11207;59.512;18.050;2023-04-28T04:49:13;4.00;99.90
22081;DHT22;11207;59.512;18.050;2023-04-28T04:51:39;4.00;99.90
22081;DHT22;11207;59.512;18.050;2023-04-28T04:54:04;4.00;99.90
22081;DHT22;11207;59.512;18.050;2023-04-28T04:56:30;4.10;99.90
22081;DHT22;11207;59.512;18.050;2023-04-28T04:58:56;4.00;99.90
22081;DHT22;11207;59.512;18.050;2023-04-28T05:01:22;4.10;99.90
22081;DHT22;11207;59.512;18.050;2023-04-28T05:03:47;4.10;99.90
22081;DHT22;11207;59.512;18.050;2023-04-28T05:06:13;4.20;99.90
22081;DHT22;11207;59.512;18.050;2023-04-28T05:08:38;4.20;99.90
22081;DHT22;11207;59.512;18.050;2023-04-28T05:11:04;4.10;99.90
22081;DHT22;11207;59.512;18.050;2023-04-28T05:13:30;4.00;99.90
22081;DHT22;11207;59.512;18.050;2023-04-28T05:15:55;4.10;99.90
22081;DHT22;11207;59.512;18.050;2023-04-28T05:18:21;4.20;99.90
22081;DHT22;11207;59.512;18.050;2023-04-28T05:20:47;4.20;99.90
22081;DHT22;11207;59.512;18.050;2023-04-28T05:23:13;4.20;99.90
22081;DHT22;11207;59.512;18.050;2023-04-28T05:25:38;4.30;99.90
22081;DHT22;11207;59.512;18.050;2023-04-28T05:28:04;4.20;99.90
22081;DHT22;11207;59.512;18.050;2023-04-28T05:30:32;4.30;99.90
22081;DHT22;11207;59.512;18.050;2023-04-28T05:32:58;4.30;99.90
22081;DHT22;11207;59.512;18.050;2023-04-28T05:35:24;4.20;99.90
22081;DHT22;11207;59.512;18.050;2023-04-28T05:37:50;4.20;99.90
22081;DHT22;11207;59.512;18.050;2023-04-28T05:40:16;4.20;99.90
22081;DHT22;11207;59.512;18.050;2023-04-28T05:42:41;4.20;99.90
22081;DHT22;11207;59.512;18.050;2023-04-28T05:45:07;4.20;99.90
22081;DHT22;11207;59.512;18.050;2023-04-28T05:47:34;4.30;99.90
22081;DHT22;11207;59.512;18.050;2023-04-28T05:49:59;4.30;99.90
22081;DHT22;11207;59.512;18.050;2023-04-28T05:52:25;4.30;99.90
22081;DHT22;11207;59.512;18.050;2023-04-28T05:58:01;4.30;99.90
22081;DHT22;11207;59.512;18.050;2023-04-28T06:00:27;4.30;99.90
22081;DHT22;11207;59.512;18.050;2023-04-28T06:02:52;4.30;99.90
22081;DHT22;11207;59.512;18.050;2023-04-28T06:05:18;4.30;99.90
22081;DHT22;11207;59.512;18.050;2023-04-28T06:07:44;4.40;99.90
22081;DHT22;11207;59.512;18.050;2023-04-28T06:10:10;4.50;99.90
22081;DHT22;11207;59.512;18.050;2023-04-28T06:12:36;4.40;99.90
22081;DHT22;11207;59.512;18.050;2023-04-28T06:15:02;4.50;99.90
22081;DHT22;11207;59.512;18.050;2023-04-28T06:17:28;4.60;99.90
22081;DHT22;11207;59.512;18.050;2023-04-28T06:19:55;4.70;99.90
22081;DHT22;11207;59.512;18.050;2023-04-28T06:22:23;4.70;99.90
22081;DHT22;11207;59.512;18.050;2023-04-28T06:24:52;4.80;99.90
22081;DHT22;11207;59.512;18.050;2023-04-28T06:27:18;4.80;99.90
22081;DHT22;11207;59.512;18.050;2023-04-28T06:29:44;4.90;99.90
22081;DHT22;11207;59.512;18.050;2023-04-28T06:32:09;4.90;99.90
22081;DHT22;11207;59.512;18.050;2023-04-28T06:34:36;5.00;99.90
22081;DHT22;11207;59.512;18.050;2023-04-28T06:37:02;5.00;99.90
22081;DHT22;11207;59.512;18.050;2023-04-28T06:39:28;5.10;99.90
22081;DHT22;11207;59.512;18.050;2023-04-28T06:41:53;5.10;99.90
22081;DHT22;11207;59.512;18.050;2023-04-28T06:44:19;5.10;99.90
22081;DHT22;11207;59.512;18.050;2023-04-28T06:46:44;5.20;99.90
22081;DHT22;11207;59.512;18.050;2023-04-28T06:49:10;5.20;99.90
22081;DHT22;11207;59.512;18.050;2023-04-28T06:51:36;5.20;99.90
22081;DHT22;11207;59.512;18.050;2023-04-28T06:54:02;5.10;99.90
22081;DHT22;11207;59.512;18.050;2023-04-28T06:56:27;5.20;99.90
22081;DHT22;11207;59.512;18.050;2023-04-28T06:58:56;5.30;99.90
22081;DHT22;11207;59.512;18.050;2023-04-28T07:01:23;5.20;99.90
22081;DHT22;11207;59.512;18.050;2023-04-28T07:03:51;5.30;99.90
22081;DHT22;11207;59.512;18.050;2023-04-28T07:06:17;5.30;99.90
22081;DHT22;11207;59.512;18.050;2023-04-28T07:12:23;5.30;99.90
22081;DHT22;11207;59.512;18.050;2023-04-28T07:14:52;5.30;99.90
22081;DHT22;11207;59.512;18.050;2023-04-28T07:17:18;5.40;99.90
22081;DHT22;11207;59.512;18.050;2023-04-28T07:19:43;5.40;99.90
22081;DHT22;11207;59.512;18.050;2023-04-28T07:22:09;5.50;99.90
22081;DHT22;11207;59.512;18.050;2023-04-28T07:24:35;5.50;99.90
22081;DHT22;11207;59.512;18.050;2023-04-28T07:27:00;5.80;99.90
22081;DHT22;11207;59.512;18.050;2023-04-28T07:29:28;5.90;99.90
22081;DHT22;11207;59.512;18.050;2023-04-28T07:32:00;5.60;99.90
22081;DHT22;11207;59.512;18.050;2023-04-28T07:34:26;5.70;99.90
22081;DHT22;11207;59.512;18.050;2023-04-28T07:36:52;5.80;99.90
22081;DHT22;11207;59.512;18.050;2023-04-28T07:39:18;5.80;99.90
22081;DHT22;11207;59.512;18.050;2023-04-28T07:41:44;5.80;99.90
22081;DHT22;11207;59.512;18.050;2023-04-28T07:44:09;5.60;99.90
22081;DHT22;11207;59.512;18.050;2023-04-28T07:46:35;5.70;99.90
22081;DHT22;11207;59.512;18.050;2023-04-28T07:49:02;5.50;99.90
22081;DHT22;11207;59.512;18.050;2023-04-28T07:51:29;5.50;99.90
22081;DHT22;11207;59.512;18.050;2023-04-28T07:53:55;5.50;99.90
22081;DHT22;11207;59.512;18.050;2023-04-28T07:56:21;5.60;99.90
22081;DHT22;11207;59.512;18.050;2023-04-28T07:58:47;5.60;99.90
22081;DHT22;11207;59.512;18.050;2023-04-28T08:01:13;5.60;99.90
22081;DHT22;11207;59.512;18.050;2023-04-28T08:03:38;5.70;99.90
22081;DHT22;11207;59.512;18.050;2023-04-28T08:06:04;5.80;99.90
22081;DHT22;11207;59.512;18.050;2023-04-28T08:08:30;5.70;99.90
22081;DHT22;11207;59.512;18.050;2023-04-28T08:10:56;5.70;99.90
22081;DHT22;11207;59.512;18.050;2023-04-28T08:13:23;5.80;99.90
22081;DHT22;11207;59.512;18.050;2023-04-28T08:15:48;6.00;99.90
22081;DHT22;11207;59.512;18.050;2023-04-28T08:18:15;6.00;99.90
22081;DHT22;11207;59.512;18.050;2023-04-28T08:20:41;6.00;99.90
22081;DHT22;11207;59.512;18.050;2023-04-28T08:23:11;6.00;99.90
22081;DHT22;11207;59.512;18.050;2023-04-28T08:25:36;6.10;99.90
22081;DHT22;11207;59.512;18.050;2023-04-28T08:28:02;6.20;99.90
22081;DHT22;11207;59.512;18.050;2023-04-28T08:30:31;6.20;99.90
22081;DHT22;11207;59.512;18.050;2023-04-28T08:32:56;6.30;99.90
22081;DHT22;11207;59.512;18.050;2023-04-28T08:35:22;6.40;99.90
22081;DHT22;11207;59.512;18.050;2023-04-28T08:37:48;6.40;99.90
22081;DHT22;11207;59.512;18.050;2023-04-28T08:40:14;6.50;99.90
22081;DHT22;11207;59.512;18.050;2023-04-28T08:42:40;6.60;99.90
22081;DHT22;11207;59.512;18.050;2023-04-28T08:45:12;6.60;99.90
22081;DHT22;11207;59.512;18.050;2023-04-28T08:47:39;6.60;99.90
22081;DHT22;11207;59.512;18.050;2023-04-28T08:50:06;6.60;99.90
22081;DHT22;11207;59.512;18.050;2023-04-28T08:52:32;6.70;99.90
22081;DHT22;11207;59.512;18.050;2023-04-28T08:54:59;6.80;99.90
22081;DHT22;11207;59.512;18.050;2023-04-28T08:57:26;7.00;99.90
22081;DHT22;11207;59.512;18.050;2023-04-28T08:59:54;7.10;99.90
22081;DHT22;11207;59.512;18.050;2023-04-28T09:02:21;7.00;99.90
22081;DHT22;11207;59.512;18.050;2023-04-28T09:04:46;6.90;99.90
22081;DHT22;11207;59.512;18.050;2023-04-28T09:07:12;7.00;99.90
22081;DHT22;11207;59.512;18.050;2023-04-28T09:09:39;7.10;99.90
22081;DHT22;11207;59.512;18.050;2023-04-28T09:12:05;7.10;99.90
22081;DHT22;11207;59.512;18.050;2023-04-28T09:14:33;7.20;99.90
22081;DHT22;11207;59.512;18.050;2023-04-28T09:17:00;7.00;99.90
22081;DHT22;11207;59.512;18.050;2023-04-28T09:19:34;7.10;99.90
22081;DHT22;11207;59.512;18.050;2023-04-28T09:22:01;7.10;99.90
22081;DHT22;11207;59.512;18.050;2023-04-28T09:24:34;7.00;99.90
22081;DHT22;11207;59.512;18.050;2023-04-28T09:27:03;7.00;99.90
22081;DHT22;11207;59.512;18.050;2023-04-28T09:29:29;7.00;99.90
22081;DHT22;11207;59.512;18.050;2023-04-28T09:32:17;6.90;99.90
22081;DHT22;11207;59.512;18.050;2023-04-28T09:34:48;7.00;99.90
22081;DHT22;11207;59.512;18.050;2023-04-28T09:37:18;7.00;99.90
22081;DHT22;11207;59.512;18.050;2023-04-28T09:39:49;7.10;99.90
22081;DHT22;11207;59.512;18.050;2023-04-28T09:42:38;7.00;99.90
22081;DHT22;11207;59.512;18.050;2023-04-28T09:45:06;7.10;99.90
22081;DHT22;11207;59.512;18.050;2023-04-28T09:47:34;7.10;99.90
22081;DHT22;11207;59.512;18.050;2023-04-28T09:50:02;7.20;99.90
22081;DHT22;11207;59.512;18.050;2023-04-28T09:52:28;7.20;99.90
22081;DHT22;11207;59.512;18.050;2023-04-28T09:54:55;7.40;99.90
22081;DHT22;11207;59.512;18.050;2023-04-28T09:57:21;7.50;99.90
22081;DHT22;11207;59.512;18.050;2023-04-28T09:59:51;7.50;99.90
22081;DHT22;11207;59.512;18.050;2023-04-28T10:02:18;7.50;99.90
22081;DHT22;11207;59.512;18.050;2023-04-28T10:04:46;7.60;99.90
22081;DHT22;11207;59.512;18.050;2023-04-28T10:07:12;7.50;99.90
22081;DHT22;11207;59.512;18.050;2023-04-28T10:09:42;7.60;99.90
22081;DHT22;11207;59.512;18.050;2023-04-28T10:12:19;7.40;99.90
22081;DHT22;11207;59.512;18.050;2023-04-28T10:14:45;7.40;99.90
22081;DHT22;11207;59.512;18.050;2023-04-28T10:17:16;7.70;99.90
22081;DHT22;11207;59.512;18.050;2023-04-28T10:19:46;8.00;99.90
22081;DHT22;11207;59.512;18.050;2023-04-28T10:22:47;8.30;99.90
22081;DHT22;11207;59.512;18.050;2023-04-28T10:25:31;8.50;99.90
22081;DHT22;11207;59.512;18.050;2023-04-28T10:27:59;8.70;99.90
22081;DHT22;11207;59.512;18.050;2023-04-28T10:30:26;9.00;99.90
22081;DHT22;11207;59.512;18.050;2023-04-28T10:38:03;9.60;99.90
22081;DHT22;11207;59.512;18.050;2023-04-28T10:43:06;9.60;99.90
22081;DHT22;11207;59.512;18.050;2023-04-28T10:56:24;10.30;99.90
22081;DHT22;11207;59.512;18.050;2023-04-28T10:58:58;10.70;99.90
22081;DHT22;11207;59.512;18.050;2023-04-28T11:01:28;11.20;99.90
22081;DHT22;11207;59.512;18.050;2023-04-28T11:04:05;11.20;99.90
22081;DHT22;11207;59.512;18.050;2023-04-28T11:06:46;11.20;99.90
22081;DHT22;11207;59.512;18.050;2023-04-28T11:16:59;10.70;99.90
22081;DHT22;11207;59.512;18.050;2023-04-28T11:19:30;10.40;99.90
22081;DHT22;11207;59.512;18.050;2023-04-28T11:22:04;9.90;99.90
22081;DHT22;11207;59.512;18.050;2023-04-28T11:24:42;9.80;99.90
22081;DHT22;11207;59.512;18.050;2023-04-28T11:27:26;10.00;99.90
22081;DHT22;11207;59.512;18.050;2023-04-28T11:29:52;10.50;99.90
22081;DHT22;11207;59.512;18.050;2023-04-28T11:32:26;10.80;99.90
22081;DHT22;11207;59.512;18.050;2023-04-28T11:34:52;10.80;99.90
22081;DHT22;11207;59.512;18.050;2023-04-28T11:37:18;10.90;99.90
22081;DHT22;11207;59.512;18.050;2023-04-28T11:39:45;11.10;99.90
22081;DHT22;11207;59.512;18.050;2023-04-28T11:42:11;10.90;98.00
22081;DHT22;11207;59.512;18.050;2023-04-28T11:44:37;10.70;98.60
22081;DHT22;11207;59.512;18.050;2023-04-28T11:47:06;10.80;99.90
22081;DHT22;11207;59.512;18.050;2023-04-28T11:49:44;10.70;99.00
22081;DHT22;11207;59.512;18.050;2023-04-28T11:52:11;10.80;99.00
22081;DHT22;11207;59.512;18.050;2023-04-28T11:54:37;11.00;99.90
22081;DHT22;11207;59.512;18.050;2023-04-28T11:57:03;10.90;99.90
22081;DHT22;11207;59.512;18.050;2023-04-28T11:59:34;10.70;99.90
22081;DHT22;11207;59.512;18.050;2023-04-28T12:02:02;10.80;99.90
22081;DHT22;11207;59.512;18.050;2023-04-28T12:10:09;10.50;99.90
22081;DHT22;11207;59.512;18.050;2023-04-28T12:12:31;10.50;99.90
22081;DHT22;11207;59.512;18.050;2023-04-28T12:15:05;10.50;99.90
22081;DHT22;11207;59.512;18.050;2023-04-28T12:17:35;10.60;99.90
22081;DHT22;11207;59.512;18.050;2023-04-28T12:20:04;10.40;99.90
22081;DHT22;11207;59.512;18.050;2023-04-28T12:22:45;10.50;99.90
22081;DHT22;11207;59.512;18.050;2023-04-28T12:25:14;10.80;99.90
22081;DHT22;11207;59.512;18.050;2023-04-28T12:27:57;10.90;99.90
22081;DHT22;11207;59.512;18.050;2023-04-28T12:30:23;11.10;99.90
22081;DHT22;11207;59.512;18.050;2023-04-28T12:32:52;11.00;99.90
22081;DHT22;11207;59.512;18.050;2023-04-28T12:35:38;11.00;99.70
22081;DHT22;11207;59.512;18.050;2023-04-28T12:38:04;11.00;99.90
22081;DHT22;11207;59.512;18.050;2023-04-28T12:40:32;11.10;99.90
22081;DHT22;11207;59.512;18.050;2023-04-28T12:43:00;11.10;99.90
22081;DHT22;11207;59.512;18.050;2023-04-28T12:45:26;11.20;99.90
22081;DHT22;11207;59.512;18.050;2023-04-28T12:47:54;11.20;99.90
22081;DHT22;11207;59.512;18.050;2023-04-28T12:50:21;11.10;98.80
22081;DHT22;11207;59.512;18.050;2023-04-28T12:52:47;11.00;99.70
22081;DHT22;11207;59.512;18.050;2023-04-28T12:55:13;10.80;99.60
22081;DHT22;11207;59.512;18.050;2023-04-28T12:57:38;10.70;99.90
22081;DHT22;11207;59.512;18.050;2023-04-28T13:00:08;10.60;99.50
22081;DHT22;11207;59.512;18.050;2023-04-28T13:02:34;10.30;99.90
22081;DHT22;11207;59.512;18.050;2023-04-28T13:04:59;10.20;98.30
22081;DHT22;11207;59.512;18.050;2023-04-28T13:07:26;10.00;98.40
22081;DHT22;11207;59.512;18.050;2023-04-28T13:09:54;10.00;99.50
22081;DHT22;11207;59.512;18.050;2023-04-28T13:15:22;10.00;99.50
22081;DHT22;11207;59.512;18.050;2023-04-28T13:17:47;9.90;99.90
22081;DHT22;11207;59.512;18.050;2023-04-28T13:20:16;10.10;99.90
22081;DHT22;11207;59.512;18.050;2023-04-28T13:22:41;10.20;99.90
22081;DHT22;11207;59.512;18.050;2023-04-28T13:25:08;10.40;99.90
22081;DHT22;11207;59.512;18.050;2023-04-28T13:27:34;10.50;99.90
22081;DHT22;11207;59.512;18.050;2023-04-28T13:30:04;10.60;99.90
22081;DHT22;11207;59.512;18.050;2023-04-28T13:32:30;10.60;99.90
22081;DHT22;11207;59.512;18.050;2023-04-28T13:34:56;10.40;99.90
22081;DHT22;11207;59.512;18.050;2023-04-28T13:37:22;10.30;99.90
22081;DHT22;11207;59.512;18.050;2023-04-28T13:39:47;10.20;99.90
22081;DHT22;11207;59.512;18.050;2023-04-28T13:42:13;10.00;99.90
22081;DHT22;11207;59.512;18.050;2023-04-28T13:44:40;9.90;99.90
22081;DHT22;11207;59.512;18.050;2023-04-28T13:47:06;9.70;99.90
22081;DHT22;11207;59.512;18.050;2023-04-28T13:49:33;9.50;99.90
22081;DHT22;11207;59.512;18.050;2023-04-28T13:52:01;9.40;99.90
22081;DHT22;11207;59.512;18.050;2023-04-28T13:54:28;9.20;99.90
22081;DHT22;11207;59.512;18.050;2023-04-28T13:56:54;8.90;99.90
22081;DHT22;11207;59.512;18.050;2023-04-28T13:59:20;8.80;99.90
22081;DHT22;11207;59.512;18.050;2023-04-28T14:01:46;8.70;99.90
22081;DHT22;11207;59.512;18.050;2023-04-28T14:04:11;8.70;99.90
22081;DHT22;11207;59.512;18.050;2023-04-28T14:06:40;8.70;99.90
22081;DHT22;11207;59.512;18.050;2023-04-28T14:09:06;8.70;99.90
22081;DHT22;11207;59.512;18.050;2023-04-28T14:11:32;8.60;99.90
22081;DHT22;11207;59.512;18.050;2023-04-28T14:13:57;8.80;99.90
22081;DHT22;11207;59.512;18.050;2023-04-28T14:16:24;8.80;99.90
22081;DHT22;11207;59.512;18.050;2023-04-28T14:18:50;8.90;99.90
22081;DHT22;11207;59.512;18.050;2023-04-28T14:21:16;8.90;99.90
22081;DHT22;11207;59.512;18.050;2023-04-28T14:23:44;9.10;99.90
22081;DHT22;11207;59.512;18.050;2023-04-28T14:26:10;8.90;99.90
22081;DHT22;11207;59.512;18.050;2023-04-28T14:28:36;9.00;99.90
22081;DHT22;11207;59.512;18.050;2023-04-28T14:31:03;9.00;99.90
22081;DHT22;11207;59.512;18.050;2023-04-28T14:33:31;9.20;99.90
22081;DHT22;11207;59.512;18.050;2023-04-28T14:35:57;9.20;99.90
22081;DHT22;11207;59.512;18.050;2023-04-28T14:38:22;9.20;99.90
22081;DHT22;11207;59.512;18.050;2023-04-28T14:40:48;9.40;99.90
22081;DHT22;11207;59.512;18.050;2023-04-28T14:43:15;9.50;99.90
22081;DHT22;11207;59.512;18.050;2023-04-28T14:45:43;9.70;99.90
22081;DHT22;11207;59.512;18.050;2023-04-28T14:48:12;9.60;99.90
22081;DHT22;11207;59.512;18.050;2023-04-28T14:50:41;9.60;99.90
22081;DHT22;11207;59.512;18.050;2023-04-28T14:53:11;9.60;99.90
22081;DHT22;11207;59.512;18.050;2023-04-28T14:55:36;9.60;99.90
22081;DHT22;11207;59.512;18.050;2023-04-28T14:58:04;9.50;99.90
22081;DHT22;11207;59.512;18.050;2023-04-28T15:00:30;9.30;99.90
22081;DHT22;11207;59.512;18.050;2023-04-28T15:02:55;9.20;99.90
22081;DHT22;11207;59.512;18.050;2023-04-28T15:05:21;9.20;99.90
22081;DHT22;11207;59.512;18.050;2023-04-28T15:07:47;9.10;99.90
22081;DHT22;11207;59.512;18.050;2023-04-28T15:10:13;9.10;99.90
22081;DHT22;11207;59.512;18.050;2023-04-28T15:12:39;9.10;99.90
22081;DHT22;11207;59.512;18.050;2023-04-28T15:15:07;9.00;99.90
22081;DHT22;11207;59.512;18.050;2023-04-28T15:17:33;8.80;99.90
22081;DHT22;11207;59.512;18.050;2023-04-28T15:19:58;8.60;99.90
22081;DHT22;11207;59.512;18.050;2023-04-28T15:22:24;8.40;99.90
22081;DHT22;11207;59.512;18.050;2023-04-28T15:24:50;8.40;99.90
22081;DHT22;11207;59.512;18.050;2023-04-28T15:27:16;8.20;99.90
22081;DHT22;11207;59.512;18.050;2023-04-28T15:29:42;8.20;99.90
22081;DHT22;11207;59.512;18.050;2023-04-28T15:32:08;8.20;99.90
22081;DHT22;11207;59.512;18.050;2023-04-28T15:34:34;8.30;99.90
22081;DHT22;11207;59.512;18.050;2023-04-28T15:37:49;8.50;99.90
22081;DHT22;11207;59.512;18.050;2023-04-28T15:40:02;8.50;99.90
22081;DHT22;11207;59.512;18.050;2023-04-28T15:42:30;8.50;99.90
22081;DHT22;11207;59.512;18.050;2023-04-28T15:44:57;8.60;99.90
22081;DHT22;11207;59.512;18.050;2023-04-28T15:47:23;8.70;99.90
22081;DHT22;11207;59.512;18.050;2023-04-28T15:49:52;8.60;99.90
22081;DHT22;11207;59.512;18.050;2023-04-28T15:52:20;8.60;99.90
22081;DHT22;11207;59.512;18.050;2023-04-28T15:54:47;8.50;99.90
22081;DHT22;11207;59.512;18.050;2023-04-28T15:57:13;8.40;99.90
22081;DHT22;11207;59.512;18.050;2023-04-28T15:59:38;8.30;99.90
22081;DHT22;11207;59.512;18.050;2023-04-28T16:02:26;8.40;99.90
22081;DHT22;11207;59.512;18.050;2023-04-28T16:04:52;8.40;99.90
22081;DHT22;11207;59.512;18.050;2023-04-28T16:07:17;8.40;99.90
22081;DHT22;11207;59.512;18.050;2023-04-28T16:09:43;8.40;99.90